sensor_id;sensor_type;location;lat;lon;timestamp;pressure;altitude;pressure_sealevel;temperature;humidity
82262;BME280;71861;52.364;6.580;2024-01-11T04:01:44;103508.16;;;-7.68;95.78
82262;BME280;71861;52.364;6.580;2024-01-11T04:04:10;103509.03;;;-7.65;96.73
82262;BME280;71861;52.364;6.580;2024-01-11T04:06:35;103514.13;;;-7.62;96.49
82262;BME280;71861;52.364;6.580;2024-01-11T04:09:01;103520.97;;;-7.56;97.34
82262;BME280;71861;52.364;6.580;2024-01-11T04:11:29;103500.75;;;-7.56;96.30
82262;BME280;71861;52.364;6.580;2024-01-11T04:13:55;103504.91;;;-7.60;96.16
82262;BME280;71861;52.364;6.580;2024-01-11T04:16:21;103511.69;;;-7.57;96.79
82262;BME280;71861;52.364;6.580;2024-01-11T04:18:46;103519.34;;;-7.53;97.65
82262;BME280;71861;52.364;6.580;2024-01-11T04:21:25;103521.06;;;-7.49;97.19
82262;BME280;71861;52.364;6.580;2024-01-11T04:23:53;103513.47;;;-7.50;96.35
82262;BME280;71861;52.364;6.580;2024-01-11T04:26:19;103515.16;;;-7.49;96.76
82262;BME280;71861;52.364;6.580;2024-01-11T04:28:45;103525.25;;;-7.49;96.41
82262;BME280;71861;52.364;6.580;2024-01-11T04:31:11;103518.50;;;-7.50;96.63
82262;BME280;71861;52.364;6.580;2024-01-11T04:33:40;103513.47;;;-7.50;96.23
82262;BME280;71861;52.364;6.580;2024-01-11T04:36:05;103509.97;;;-7.58;95.63
82262;BME280;71861;52.364;6.580;2024-01-11T04:38:31;103508.22;;;-7.64;95.88
82262;BME280;71861;52.364;6.580;2024-01-11T04:40:56;103507.34;;;-7.66;96.04
82262;BME280;71861;52.364;6.580;2024-01-11T04:43:21;103497.19;;;-7.70;95.71
82262;BME280;71861;52.364;6.580;2024-01-11T04:45:46;103493.75;;;-7.75;95.77
82262;BME280;71861;52.364;6.580;2024-01-11T04:48:13;103478.47;;;-7.84;95.60
82262;BME280;71861;52.364;6.580;2024-01-11T04:50:38;103472.50;;;-7.89;95.50
82262;BME280;71861;52.364;6.580;2024-01-11T04:53:03;103469.03;;;-7.97;95.49
82262;BME280;71861;52.364;6.580;2024-01-11T04:55:29;103463.00;;;-8.07;95.60
82262;BME280;71861;52.364;6.580;2024-01-11T04:57:54;103476.38;;;-8.12;96.00
82262;BME280;71861;52.364;6.580;2024-01-11T05:00:19;103482.19;;;-8.16;95.80
82262;BME280;71861;52.364;6.580;2024-01-11T05:02:45;103467.81;;;-8.22;96.11
82262;BME280;71861;52.364;6.580;2024-01-11T05:05:10;103460.19;;;-8.28;96.24
82262;BME280;71861;52.364;6.580;2024-01-11T05:07:35;103474.41;;;-8.33;96.03
82262;BME280;71861;52.364;6.580;2024-01-11T05:10:01;103476.91;;;-8.34;96.42
82262;BME280;71861;52.364;6.580;2024-01-11T05:12:26;103487.00;;;-8.34;96.92
82262;BME280;71861;52.364;6.580;2024-01-11T05:14:52;103489.53;;;-8.34;96.48
82262;BME280;71861;52.364;6.580;2024-01-11T05:17:17;103494.50;;;-8.37;96.72
82262;BME280;71861;52.364;6.580;2024-01-11T05:19:42;103488.59;;;-8.39;97.16
82262;BME280;71861;52.364;6.580;2024-01-11T05:22:07;103475.91;;;-8.44;96.83
82262;BME280;71861;52.364;6.580;2024-01-11T05:24:33;103465.72;;;-8.50;97.11
82262;BME280;71861;52.364;6.580;2024-01-11T05:26:58;103475.75;;;-8.53;97.10
82262;BME280;71861;52.364;6.580;2024-01-11T05:29:24;103504.41;;;-8.48;98.24
82262;BME280;71861;52.364;6.580;2024-01-11T05:31:49;103507.03;;;-8.42;98.13
82262;BME280;71861;52.364;6.580;2024-01-11T05:34:14;103518.91;;;-8.36;97.74
82262;BME280;71861;52.364;6.580;2024-01-11T05:36:40;103516.34;;;-8.38;98.52
82262;BME280;71861;52.364;6.580;2024-01-11T05:39:05;103524.81;;;-8.34;98.46
82262;BME280;71861;52.364;6.580;2024-01-11T05:41:31;103520.72;;;-8.26;99.04
82262;BME280;71861;52.364;6.580;2024-01-11T05:43:56;103519.13;;;-8.20;98.87
82262;BME280;71861;52.364;6.580;2024-01-11T05:46:21;103518.31;;;-8.20;98.45
82262;BME280;71861;52.364;6.580;2024-01-11T05:48:47;103531.75;;;-8.20;98.23
82262;BME280;71861;52.364;6.580;2024-01-11T05:51:12;103539.34;;;-8.18;98.11
82262;BME280;71861;52.364;6.580;2024-01-11T05:53:37;103541.19;;;-8.10;98.59
82262;BME280;71861;52.364;6.580;2024-01-11T05:56:12;103547.97;;;-8.06;98.99
82262;BME280;71861;52.364;6.580;2024-01-11T05:58:37;103550.59;;;-7.98;99.66
82262;BME280;71861;52.364;6.580;2024-01-11T06:01:03;103560.84;;;-7.89;100.00
82262;BME280;71861;52.364;6.580;2024-01-11T06:03:29;103562.72;;;-7.78;100.00
82262;BME280;71861;52.364;6.580;2024-01-11T06:05:55;103568.78;;;-7.67;100.00
82262;BME280;71861;52.364;6.580;2024-01-11T06:08:20;103574.75;;;-7.60;100.00
82262;BME280;71861;52.364;6.580;2024-01-11T06:10:46;103577.38;;;-7.54;100.00
82262;BME280;71861;52.364;6.580;2024-01-11T06:13:11;103584.22;;;-7.47;100.00
82262;BME280;71861;52.364;6.580;2024-01-11T06:15:36;103577.56;;;-7.42;100.00
82262;BME280;71861;52.364;6.580;2024-01-11T06:18:02;103579.28;;;-7.38;100.00
82262;BME280;71861;52.364;6.580;2024-01-11T06:20:27;103569.19;;;-7.37;100.00
82262;BME280;71861;52.364;6.580;2024-01-11T06:22:52;103576.13;;;-7.25;100.00
82262;BME280;71861;52.364;6.580;2024-01-11T06:25:17;103572.78;;;-7.23;100.00
82262;BME280;71861;52.364;6.580;2024-01-11T06:27:43;103568.56;;;-7.24;100.00
82262;BME280;71861;52.364;6.580;2024-01-11T06:30:09;103564.34;;;-7.22;100.00
82262;BME280;71861;52.364;6.580;2024-01-11T06:32:35;103563.50;;;-7.24;100.00
82262;BME280;71861;52.364;6.580;2024-01-11T06:35:00;103557.59;;;-7.24;99.84
82262;BME280;71861;52.364;6.580;2024-01-11T06:37:27;103553.38;;;-7.25;99.74
82262;BME280;71861;52.364;6.580;2024-01-11T06:39:52;103542.31;;;-7.33;99.05
82262;BME280;71861;52.364;6.580;2024-01-11T06:42:17;103540.53;;;-7.40;98.87
82262;BME280;71861;52.364;6.580;2024-01-11T06:44:43;103540.47;;;-7.43;98.70
82262;BME280;71861;52.364;6.580;2024-01-11T06:47:08;103535.25;;;-7.55;98.92
82262;BME280;71861;52.364;6.580;2024-01-11T06:49:33;103532.69;;;-7.58;99.10
82262;BME280;71861;52.364;6.580;2024-01-11T06:51:59;103536.03;;;-7.62;98.95
82262;BME280;71861;52.364;6.580;2024-01-11T06:54:24;103541.00;;;-7.68;99.05
82262;BME280;71861;52.364;6.580;2024-01-11T06:56:50;103535.84;;;-7.74;98.67
82262;BME280;71861;52.364;6.580;2024-01-11T06:59:15;103550.06;;;-7.81;98.88
82262;BME280;71861;52.364;6.580;2024-01-11T07:01:40;103551.66;;;-7.84;99.54
82262;BME280;71861;52.364;6.580;2024-01-11T07:04:06;103546.63;;;-7.84;99.08
82262;BME280;71861;52.364;6.580;2024-01-11T07:06:31;103536.41;;;-7.92;99.50
82262;BME280;71861;52.364;6.580;2024-01-11T07:08:56;103551.53;;;-7.93;98.92
82262;BME280;71861;52.364;6.580;2024-01-11T07:11:21;103548.97;;;-7.96;99.73
82262;BME280;71861;52.364;6.580;2024-01-11T07:13:47;103545.63;;;-7.94;100.00
82262;BME280;71861;52.364;6.580;2024-01-11T07:16:12;103553.28;;;-7.89;100.00
82262;BME280;71861;52.364;6.580;2024-01-11T07:18:37;103544.88;;;-7.90;100.00
82262;BME280;71861;52.364;6.580;2024-01-11T07:21:03;103544.84;;;-7.91;100.00
82262;BME280;71861;52.364;6.580;2024-01-11T07:23:28;103544.88;;;-7.88;100.00
82262;BME280;71861;52.364;6.580;2024-01-11T07:25:54;103533.06;;;-7.89;100.00
82262;BME280;71861;52.364;6.580;2024-01-11T07:28:19;103527.19;;;-7.90;100.00
82262;BME280;71861;52.364;6.580;2024-01-11T07:30:50;103559.22;;;-7.86;100.00
82262;BME280;71861;52.364;6.580;2024-01-11T07:33:15;103554.25;;;-7.80;100.00
82262;BME280;71861;52.364;6.580;2024-01-11T07:35:40;103552.66;;;-7.75;100.00
82262;BME280;71861;52.364;6.580;2024-01-11T07:38:06;103555.22;;;-7.73;100.00
82262;BME280;71861;52.364;6.580;2024-01-11T07:40:31;103546.75;;;-7.75;100.00
82262;BME280;71861;52.364;6.580;2024-01-11T07:42:56;103555.22;;;-7.72;100.00
82262;BME280;71861;52.364;6.580;2024-01-11T07:45:22;103556.91;;;-7.72;100.00
82262;BME280;71861;52.364;6.580;2024-01-11T07:47:47;103562.84;;;-7.69;100.00
82262;BME280;71861;52.364;6.580;2024-01-11T07:50:13;103555.22;;;-7.73;100.00
82262;BME280;71861;52.364;6.580;2024-01-11T07:52:39;103568.75;;;-7.68;100.00
82262;BME280;71861;52.364;6.580;2024-01-11T07:55:09;103566.19;;;-7.71;100.00
82262;BME280;71861;52.364;6.580;2024-01-11T07:57:37;103578.81;;;-7.71;100.00
82262;BME280;71861;52.364;6.580;2024-01-11T08:00:04;103595.84;;;-7.58;100.00
82262;BME280;71861;52.364;6.580;2024-01-11T08:02:31;103589.94;;;-7.59;100.00
82262;BME280;71861;52.364;6.580;2024-01-11T08:04:57;103606.03;;;-7.51;100.00
82262;BME280;71861;52.364;6.580;2024-01-11T08:07:23;103603.56;;;-7.48;100.00
82262;BME280;71861;52.364;6.580;2024-01-11T08:09:49;103607.88;;;-7.42;100.00
82262;BME280;71861;52.364;6.580;2024-01-11T08:12:14;103603.72;;;-7.39;100.00
82262;BME280;71861;52.364;6.580;2024-01-11T08:14:40;103602.13;;;-7.31;100.00
82262;BME280;71861;52.364;6.580;2024-01-11T08:17:07;103609.81;;;-7.23;100.00
82262;BME280;71861;52.364;6.580;2024-01-11T08:19:34;103620.09;;;-7.11;100.00
82262;BME280;71861;52.364;6.580;2024-01-11T08:21:59;103616.84;;;-7.01;100.00
82262;BME280;71861;52.364;6.580;2024-01-11T08:24:25;103612.75;;;-6.93;100.00
82262;BME280;71861;52.364;6.580;2024-01-11T08:26:51;103616.31;;;-6.79;100.00
82262;BME280;71861;52.364;6.580;2024-01-11T08:29:17;103627.50;;;-6.59;100.00
82262;BME280;71861;52.364;6.580;2024-01-11T08:31:45;103606.47;;;-6.53;100.00
82262;BME280;71861;52.364;6.580;2024-01-11T08:34:10;103591.41;;;-6.44;100.00
82262;BME280;71861;52.364;6.580;2024-01-11T08:36:35;103599.97;;;-6.32;100.00
82262;BME280;71861;52.364;6.580;2024-01-11T08:39:07;103609.38;;;-6.19;100.00
82262;BME280;71861;52.364;6.580;2024-01-11T08:41:33;103605.25;;;-6.11;100.00
82262;BME280;71861;52.364;6.580;2024-01-11T08:43:59;103607.03;;;-6.01;100.00
82262;BME280;71861;52.364;6.580;2024-01-11T08:46:26;103625.69;;;-5.91;100.00
82262;BME280;71861;52.364;6.580;2024-01-11T08:48:52;103624.06;;;-5.82;100.00
82262;BME280;71861;52.364;6.580;2024-01-11T08:51:18;103608.03;;;-5.78;100.00
82262;BME280;71861;52.364;6.580;2024-01-11T08:53:43;103614.03;;;-5.67;100.00
82262;BME280;71861;52.364;6.580;2024-01-11T08:56:09;103614.09;;;-5.58;100.00
82262;BME280;71861;52.364;6.580;2024-01-11T08:58:34;103623.47;;;-5.48;100.00
82262;BME280;71861;52.364;6.580;2024-01-11T09:00:59;103620.97;;;-5.42;100.00
82262;BME280;71861;52.364;6.580;2024-01-11T09:03:25;103617.63;;;-5.33;100.00
82262;BME280;71861;52.364;6.580;2024-01-11T09:05:50;103599.94;;;-5.27;100.00
82262;BME280;71861;52.364;6.580;2024-01-11T09:08:15;103596.63;;;-5.16;100.00
82262;BME280;71861;52.364;6.580;2024-01-11T09:10:41;103601.72;;;-5.11;100.00
82262;BME280;71861;52.364;6.580;2024-01-11T09:13:07;103606.84;;;-5.00;100.00
82262;BME280;71861;52.364;6.580;2024-01-11T09:15:32;103611.13;;;-4.92;100.00
82262;BME280;71861;52.364;6.580;2024-01-11T09:17:59;103610.28;;;-4.86;100.00
82262;BME280;71861;52.364;6.580;2024-01-11T09:20:28;103607.78;;;-4.77;100.00
82262;BME280;71861;52.364;6.580;2024-01-11T09:22:53;103607.00;;;-4.69;100.00
82262;BME280;71861;52.364;6.580;2024-01-11T09:25:18;103608.69;;;-4.63;100.00
82262;BME280;71861;52.364;6.580;2024-01-11T09:27:43;103612.94;;;-4.58;100.00
82262;BME280;71861;52.364;6.580;2024-01-11T09:30:09;103626.50;;;-4.45;100.00
82262;BME280;71861;52.364;6.580;2024-01-11T09:32:34;103625.69;;;-4.40;100.00
82262;BME280;71861;52.364;6.580;2024-01-11T09:35:01;103618.94;;;-4.30;100.00
82262;BME280;71861;52.364;6.580;2024-01-11T09:37:26;103613.03;;;-4.22;100.00
82262;BME280;71861;52.364;6.580;2024-01-11T09:39:51;103607.97;;;-4.13;100.00
82262;BME280;71861;52.364;6.580;2024-01-11T09:42:18;103609.69;;;-4.06;100.00
82262;BME280;71861;52.364;6.580;2024-01-11T09:44:43;103615.59;;;-3.96;100.00
82262;BME280;71861;52.364;6.580;2024-01-11T09:47:10;103609.69;;;-3.91;100.00
82262;BME280;71861;52.364;6.580;2024-01-11T09:49:36;103620.69;;;-3.77;100.00
82262;BME280;71861;52.364;6.580;2024-01-11T09:52:04;103636.81;;;-3.66;100.00
82262;BME280;71861;52.364;6.580;2024-01-11T09:54:30;103627.44;;;-3.59;100.00
82262;BME280;71861;52.364;6.580;2024-01-11T09:56:58;103624.06;;;-3.49;100.00
82262;BME280;71861;52.364;6.580;2024-01-11T09:59:24;103628.28;;;-3.39;100.00
82262;BME280;71861;52.364;6.580;2024-01-11T10:01:51;103623.19;;;-3.33;100.00
82262;BME280;71861;52.364;6.580;2024-01-11T10:04:16;103615.56;;;-3.30;100.00
82262;BME280;71861;52.364;6.580;2024-01-11T10:06:43;103624.88;;;-3.17;100.00
82262;BME280;71861;52.364;6.580;2024-01-11T10:09:08;103609.63;;;-3.23;100.00
82262;BME280;71861;52.364;6.580;2024-01-11T10:11:34;103632.47;;;-3.06;100.00
82262;BME280;71861;52.364;6.580;2024-01-11T10:16:29;103643.47;;;-2.95;100.00
82262;BME280;71861;52.364;6.580;2024-01-11T10:18:55;103641.75;;;-2.89;100.00
82262;BME280;71861;52.364;6.580;2024-01-11T10:21:21;103646.81;;;-2.84;100.00
82262;BME280;71861;52.364;6.580;2024-01-11T10:23:47;103640.88;;;-2.88;100.00
82262;BME280;71861;52.364;6.580;2024-01-11T10:26:15;103649.34;;;-2.77;100.00
82262;BME280;71861;52.364;6.580;2024-01-11T10:28:44;103651.00;;;-2.73;100.00
82262;BME280;71861;52.364;6.580;2024-01-11T10:31:10;103645.06;;;-2.64;100.00
82262;BME280;71861;52.364;6.580;2024-01-11T10:33:35;103638.25;;;-2.59;100.00
82262;BME280;71861;52.364;6.580;2024-01-11T10:36:01;103652.63;;;-2.54;100.00
82262;BME280;71861;52.364;6.580;2024-01-11T10:38:30;103650.94;;;-2.55;100.00
82262;BME280;71861;52.364;6.580;2024-01-11T10:40:59;103646.66;;;-2.50;100.00
82262;BME280;71861;52.364;6.580;2024-01-11T10:43:27;103640.75;;;-2.49;100.00
82262;BME280;71861;52.364;6.580;2024-01-11T10:45:59;103633.91;;;-2.39;100.00
82262;BME280;71861;52.364;6.580;2024-01-11T10:48:25;103628.78;;;-2.36;100.00
82262;BME280;71861;52.364;6.580;2024-01-11T10:51:00;103632.13;;;-2.31;100.00
82262;BME280;71861;52.364;6.580;2024-01-11T10:56:00;103627.81;;;-2.20;100.00
82262;BME280;71861;52.364;6.580;2024-01-11T10:58:26;103634.59;;;-2.13;100.00
82262;BME280;71861;52.364;6.580;2024-01-11T11:00:53;103626.91;;;-2.09;100.00
82262;BME280;71861;52.364;6.580;2024-01-11T11:03:23;103631.13;;;-2.05;100.00
82262;BME280;71861;52.364;6.580;2024-01-11T11:05:48;103626.00;;;-2.02;100.00
82262;BME280;71861;52.364;6.580;2024-01-11T11:08:17;103610.78;;;-2.08;100.00
82262;BME280;71861;52.364;6.580;2024-01-11T11:10:43;103633.59;;;-1.96;100.00
82262;BME280;71861;52.364;6.580;2024-01-11T11:13:12;103642.94;;;-1.90;100.00
82262;BME280;71861;52.364;6.580;2024-01-11T11:15:40;103632.69;;;-1.84;100.00
82262;BME280;71861;52.364;6.580;2024-01-11T11:18:07;103628.41;;;-1.78;100.00
82262;BME280;71861;52.364;6.580;2024-01-11T11:20:33;103609.69;;;-1.77;100.00
82262;BME280;71861;52.364;6.580;2024-01-11T11:23:08;103605.41;;;-1.73;100.00
82262;BME280;71861;52.364;6.580;2024-01-11T11:25:35;103600.28;;;-1.70;100.00
82262;BME280;71861;52.364;6.580;2024-01-11T11:28:01;103613.78;;;-1.59;100.00
82262;BME280;71861;52.364;6.580;2024-01-11T11:30:29;103589.22;;;-1.67;100.00
82262;BME280;71861;52.364;6.580;2024-01-11T11:32:55;103612.91;;;-1.56;100.00
82262;BME280;71861;52.364;6.580;2024-01-11T11:35:23;103602.69;;;-1.53;100.00
82262;BME280;71861;52.364;6.580;2024-01-11T11:37:48;103591.63;;;-1.54;100.00
82262;BME280;71861;52.364;6.580;2024-01-11T11:40:17;103587.34;;;-1.50;100.00
82262;BME280;71861;52.364;6.580;2024-01-11T11:42:43;103589.84;;;-1.44;100.00
82262;BME280;71861;52.364;6.580;2024-01-11T11:45:10;103585.53;;;-1.39;100.00
82262;BME280;71861;52.364;6.580;2024-01-11T11:47:37;103588.94;;;-1.37;100.00
82262;BME280;71861;52.364;6.580;2024-01-11T11:50:10;103583.75;;;-1.31;100.00
82262;BME280;71861;52.364;6.580;2024-01-11T11:52:40;103586.28;;;-1.28;100.00
82262;BME280;71861;52.364;6.580;2024-01-11T11:55:08;103581.97;;;-1.26;100.00
82262;BME280;71861;52.364;6.580;2024-01-11T11:57:37;103581.16;;;-1.25;100.00
82262;BME280;71861;52.364;6.580;2024-01-11T12:00:03;103580.25;;;-1.21;100.00
82262;BME280;71861;52.364;6.580;2024-01-11T12:02:32;103575.13;;;-1.21;100.00
82262;BME280;71861;52.364;6.580;2024-01-11T12:04:58;103577.63;;;-1.17;100.00
82262;BME280;71861;52.364;6.580;2024-01-11T12:07:24;103575.06;;;-1.15;100.00
82262;BME280;71861;52.364;6.580;2024-01-11T12:09:50;103563.22;;;-1.19;100.00
82262;BME280;71861;52.364;6.580;2024-01-11T12:12:16;103569.97;;;-1.15;100.00
82262;BME280;71861;52.364;6.580;2024-01-11T12:14:43;103562.31;;;-1.17;100.00
82262;BME280;71861;52.364;6.580;2024-01-11T12:17:09;103565.69;;;-1.13;100.00
82262;BME280;71861;52.364;6.580;2024-01-11T12:19:34;103548.69;;;-1.13;100.00
82262;BME280;71861;52.364;6.580;2024-01-11T12:21:59;103563.78;;;-0.96;100.00
82262;BME280;71861;52.364;6.580;2024-01-11T12:24:25;103554.38;;;-0.91;100.00
82262;BME280;71861;52.364;6.580;2024-01-11T12:26:52;103546.69;;;-0.90;100.00
82262;BME280;71861;52.364;6.580;2024-01-11T12:29:19;103546.75;;;-0.93;100.00
82262;BME280;71861;52.364;6.580;2024-01-11T12:31:44;103538.22;;;-0.93;100.00
82262;BME280;71861;52.364;6.580;2024-01-11T12:34:11;103537.34;;;-0.92;100.00
82262;BME280;71861;52.364;6.580;2024-01-11T12:36:37;103538.16;;;-0.89;100.00
82262;BME280;71861;52.364;6.580;2024-01-11T12:39:03;103527.81;;;-0.80;100.00
82262;BME280;71861;52.364;6.580;2024-01-11T12:41:30;103531.16;;;-0.73;100.00
82262;BME280;71861;52.364;6.580;2024-01-11T12:43:56;103518.34;;;-0.70;100.00
82262;BME280;71861;52.364;6.580;2024-01-11T12:46:22;103522.50;;;-0.65;100.00
82262;BME280;71861;52.364;6.580;2024-01-11T12:48:48;103517.31;;;-0.57;100.00
82262;BME280;71861;52.364;6.580;2024-01-11T12:51:16;103513.81;;;-0.52;100.00
82262;BME280;71861;52.364;6.580;2024-01-11T12:53:41;103512.13;;;-0.53;100.00
82262;BME280;71861;52.364;6.580;2024-01-11T12:56:08;103480.78;;;-0.62;100.00
82262;BME280;71861;52.364;6.580;2024-01-11T12:58:36;103500.06;;;-0.45;100.00
82262;BME280;71861;52.364;6.580;2024-01-11T13:01:01;103487.22;;;-0.39;100.00
82262;BME280;71861;52.364;6.580;2024-01-11T13:03:28;103489.75;;;-0.37;100.00
82262;BME280;71861;52.364;6.580;2024-01-11T13:05:53;103487.16;;;-0.34;100.00
82262;BME280;71861;52.364;6.580;2024-01-11T13:08:19;103480.22;;;-0.29;100.00
82262;BME280;71861;52.364;6.580;2024-01-11T13:10:44;103472.53;;;-0.28;100.00
82262;BME280;71861;52.364;6.580;2024-01-11T13:13:10;103466.63;;;-0.30;100.00
82262;BME280;71861;52.364;6.580;2024-01-11T13:15:35;103458.22;;;-0.36;100.00
82262;BME280;71861;52.364;6.580;2024-01-11T13:18:01;103454.88;;;-0.41;100.00
82262;BME280;71861;52.364;6.580;2024-01-11T13:20:28;103449.81;;;-0.44;100.00
82262;BME280;71861;52.364;6.580;2024-01-11T13:23:13;103457.38;;;-0.37;100.00
82262;BME280;71861;52.364;6.580;2024-01-11T13:25:40;103461.56;;;-0.33;100.00
82262;BME280;71861;52.364;6.580;2024-01-11T13:28:06;103455.59;;;-0.33;100.00
82262;BME280;71861;52.364;6.580;2024-01-11T13:30:31;103459.84;;;-0.32;100.00
82262;BME280;71861;52.364;6.580;2024-01-11T13:32:58;103462.38;;;-0.31;100.00
82262;BME280;71861;52.364;6.580;2024-01-11T13:35:23;103461.53;;;-0.31;100.00
82262;BME280;71861;52.364;6.580;2024-01-11T13:37:48;103460.69;;;-0.32;100.00
82262;BME280;71861;52.364;6.580;2024-01-11T13:40:14;103458.13;;;-0.32;100.00
82262;BME280;71861;52.364;6.580;2024-01-11T13:42:40;103457.31;;;-0.34;100.00
82262;BME280;71861;52.364;6.580;2024-01-11T13:45:05;103453.94;;;-0.34;100.00
82262;BME280;71861;52.364;6.580;2024-01-11T13:47:36;103452.22;;;-0.35;100.00
82262;BME280;71861;52.364;6.580;2024-01-11T13:50:02;103437.78;;;-0.36;100.00
82262;BME280;71861;52.364;6.580;2024-01-11T13:52:28;103451.31;;;-0.31;100.00
82262;BME280;71861;52.364;6.580;2024-01-11T13:54:53;103447.91;;;-0.30;100.00
82262;BME280;71861;52.364;6.580;2024-01-11T13:57:18;103443.63;;;-0.28;100.00
82262;BME280;71861;52.364;6.580;2024-01-11T13:59:44;103439.31;;;-0.28;100.00
82262;BME280;71861;52.364;6.580;2024-01-11T14:02:09;103431.75;;;-0.34;100.00
82262;BME280;71861;52.364;6.580;2024-01-11T14:04:35;103438.47;;;-0.27;100.00
82262;BME280;71861;52.364;6.580;2024-01-11T14:07:01;103447.88;;;-0.29;100.00
82262;BME280;71861;52.364;6.580;2024-01-11T14:09:26;103451.31;;;-0.31;100.00
82262;BME280;71861;52.364;6.580;2024-01-11T14:11:52;103456.50;;;-0.34;100.00
82262;BME280;71861;52.364;6.580;2024-01-11T14:14:18;103465.06;;;-0.38;100.00
82262;BME280;71861;52.364;6.580;2024-01-11T14:16:45;103466.81;;;-0.40;100.00
82262;BME280;71861;52.364;6.580;2024-01-11T14:19:11;103470.25;;;-0.44;100.00
82262;BME280;71861;52.364;6.580;2024-01-11T14:21:36;103463.56;;;-0.50;100.00
82262;BME280;71861;52.364;6.580;2024-01-11T14:24:03;103456.75;;;-0.52;100.00
82262;BME280;71861;52.364;6.580;2024-01-11T14:26:28;103455.97;;;-0.54;100.00
82262;BME280;71861;52.364;6.580;2024-01-11T14:28:54;103461.09;;;-0.56;100.00
82262;BME280;71861;52.364;6.580;2024-01-11T14:31:19;103460.25;;;-0.56;100.00
82262;BME280;71861;52.364;6.580;2024-01-11T14:33:45;103451.75;;;-0.58;100.00
82262;BME280;71861;52.364;6.580;2024-01-11T14:36:11;103455.22;;;-0.62;100.00
82262;BME280;71861;52.364;6.580;2024-01-11T14:38:36;103462.03;;;-0.63;100.00
82262;BME280;71861;52.364;6.580;2024-01-11T14:41:01;103449.41;;;-0.70;100.00
82262;BME280;71861;52.364;6.580;2024-01-11T14:43:27;103464.66;;;-0.67;100.00
82262;BME280;71861;52.364;6.580;2024-01-11T14:45:53;103463.00;;;-0.70;100.00
82262;BME280;71861;52.364;6.580;2024-01-11T14:48:19;103465.59;;;-0.71;100.00
82262;BME280;71861;52.364;6.580;2024-01-11T14:50:44;103463.94;;;-0.75;100.00
82262;BME280;71861;52.364;6.580;2024-01-11T14:53:10;103465.63;;;-0.74;100.00
82262;BME280;71861;52.364;6.580;2024-01-11T14:55:35;103462.22;;;-0.75;100.00
82262;BME280;71861;52.364;6.580;2024-01-11T14:58:01;103460.53;;;-0.74;100.00
82262;BME280;71861;52.364;6.580;2024-01-11T15:00:26;103464.78;;;-0.75;100.00
82262;BME280;71861;52.364;6.580;2024-01-11T15:02:52;103459.66;;;-0.73;100.00
82262;BME280;71861;52.364;6.580;2024-01-11T15:05:17;103462.19;;;-0.72;100.00
82262;BME280;71861;52.364;6.580;2024-01-11T15:07:43;103458.78;;;-0.72;100.00
82262;BME280;71861;52.364;6.580;2024-01-11T15:10:09;103457.06;;;-0.70;100.00
82262;BME280;71861;52.364;6.580;2024-01-11T15:12:34;103451.97;;;-0.72;100.00
82262;BME280;71861;52.364;6.580;2024-01-11T15:15:00;103449.41;;;-0.70;100.00
82262;BME280;71861;52.364;6.580;2024-01-11T15:17:26;103452.84;;;-0.73;100.00
82262;BME280;71861;52.364;6.580;2024-01-11T15:19:51;103432.56;;;-0.82;100.00
82262;BME280;71861;52.364;6.580;2024-01-11T15:22:17;103438.44;;;-0.77;100.00
82262;BME280;71861;52.364;6.580;2024-01-11T15:24:42;103435.81;;;-0.74;100.00
82262;BME280;71861;52.364;6.580;2024-01-11T15:27:08;103437.53;;;-0.73;100.00
82262;BME280;71861;52.364;6.580;2024-01-11T15:29:33;103440.06;;;-0.71;100.00
82262;BME280;71861;52.364;6.580;2024-01-11T15:31:59;103435.81;;;-0.72;100.00
82262;BME280;71861;52.364;6.580;2024-01-11T15:34:24;103434.94;;;-0.71;100.00
82262;BME280;71861;52.364;6.580;2024-01-11T15:36:50;103440.06;;;-0.71;100.00
82262;BME280;71861;52.364;6.580;2024-01-11T15:39:15;103439.19;;;-0.70;100.00
82262;BME280;71861;52.364;6.580;2024-01-11T15:41:41;103448.50;;;-0.69;100.00
82262;BME280;71861;52.364;6.580;2024-01-11T15:44:06;103448.50;;;-0.68;100.00
82262;BME280;71861;52.364;6.580;2024-01-11T15:46:31;103437.47;;;-0.68;100.00
82262;BME280;71861;52.364;6.580;2024-01-11T15:48:57;103439.16;;;-0.69;100.00
82262;BME280;71861;52.364;6.580;2024-01-11T15:51:22;103446.84;;;-0.70;100.00
82262;BME280;71861;52.364;6.580;2024-01-11T15:53:47;103441.81;;;-0.75;100.00
82262;BME280;71861;52.364;6.580;2024-01-11T15:56:13;103451.09;;;-0.71;100.00
82262;BME280;71861;52.364;6.580;2024-01-11T15:58:38;103450.31;;;-0.74;100.00
82262;BME280;71861;52.364;6.580;2024-01-11T16:01:05;103455.34;;;-0.70;100.00
82262;BME280;71861;52.364;6.580;2024-01-11T16:03:30;103463.00;;;-0.70;100.00
82262;BME280;71861;52.364;6.580;2024-01-11T16:05:55;103456.19;;;-0.71;100.00
82262;BME280;71861;52.364;6.580;2024-01-11T16:08:21;103461.25;;;-0.68;100.00
82262;BME280;71861;52.364;6.580;2024-01-11T16:10:46;103459.53;;;-0.66;100.00
82262;BME280;71861;52.364;6.580;2024-01-11T16:13:12;103460.38;;;-0.65;100.00
82262;BME280;71861;52.364;6.580;2024-01-11T16:15:37;103461.25;;;-0.66;100.00
82262;BME280;71861;52.364;6.580;2024-01-11T16:18:03;103451.88;;;-0.66;100.00
82262;BME280;71861;52.364;6.580;2024-01-11T16:20:29;103440.06;;;-0.71;100.00
82262;BME280;71861;52.364;6.580;2024-01-11T16:22:54;103446.78;;;-0.67;100.00
82262;BME280;71861;52.364;6.580;2024-01-11T16:25:20;103447.66;;;-0.67;100.00
82262;BME280;71861;52.364;6.580;2024-01-11T16:27:45;103454.44;;;-0.66;100.00
82262;BME280;71861;52.364;6.580;2024-01-11T16:30:10;103420.63;;;-0.81;100.00
82262;BME280;71861;52.364;6.580;2024-01-11T16:32:37;103450.19;;;-0.65;100.00
82262;BME280;71861;52.364;6.580;2024-01-11T16:35:03;103453.53;;;-0.63;100.00
82262;BME280;71861;52.364;6.580;2024-01-11T16:37:30;103453.53;;;-0.63;100.00
82262;BME280;71861;52.364;6.580;2024-01-11T16:39:55;103447.63;;;-0.65;100.00
82262;BME280;71861;52.364;6.580;2024-01-11T16:42:21;103442.47;;;-0.62;100.00